Time;durP1;ratioP1;P1;durP2;ratioP2;P2;SDS_P1;SDS_P2;PMS_P1;PMS_P2;Temp;Humidity;BMP_temperature;BMP_pressure;BME280_temperature;BME280_humidity;BME280_pressure;Samples;Min_cycle;Max_cycle;Signal;HPM_P1;HPM_P2
2023/11/28 00:01:45;;;;;;;0.40;0.33;;;5.00;99.90;;;;;;4958228;29;20424;-72
2023/11/28 00:04:11;;;;;;;0.30;0.30;;;5.00;99.90;;;;;;4958882;29;20109;-73
2023/11/28 00:06:36;;;;;;;0.93;0.40;;;5.00;99.90;;;;;;4958935;29;20114;-72
2023/11/28 00:09:03;;;;;;;0.60;0.20;;;5.10;99.90;;;;;;4967553;28;20054;-73
2023/11/28 00:11:29;;;;;;;0.70;0.40;;;5.10;99.90;;;;;;4958921;29;20031;-73
2023/11/28 00:13:54;;;;;;;1.13;0.40;;;5.10;99.90;;;;;;4958215;28;20023;-74
2023/11/28 00:16:20;;;;;;;0.73;0.33;;;5.10;99.90;;;;;;4973806;28;20399;-73
2023/11/28 00:18:46;;;;;;;1.20;0.23;;;5.10;99.90;;;;;;4960109;29;20089;-73
2023/11/28 00:21:12;;;;;;;0.30;0.30;;;5.10;99.90;;;;;;4956800;28;20428;-73
2023/11/28 00:23:38;;;;;;;0.37;0.30;;;5.10;99.90;;;;;;4936001;29;20031;-72
2023/11/28 00:26:04;;;;;;;0.30;0.30;;;5.20;99.90;;;;;;4919846;29;20370;-72
2023/11/28 00:28:30;;;;;;;0.77;0.23;;;5.20;99.90;;;;;;4920555;29;20028;-72
2023/11/28 00:30:56;;;;;;;0.33;0.30;;;5.20;99.90;;;;;;4930279;29;20032;-72
2023/11/28 00:33:21;;;;;;;0.40;0.30;;;5.20;99.90;;;;;;4937639;29;20035;-72
2023/11/28 00:35:47;;;;;;;0.50;0.33;;;5.20;99.90;;;;;;4937197;29;20031;-79
2023/11/28 00:38:13;;;;;;;0.80;0.40;;;5.30;99.90;;;;;;4920530;29;20143;-72
2023/11/28 00:40:44;;;;;;;0.47;0.30;;;5.30;99.90;;;;;;4920443;29;20058;-72
2023/11/28 00:43:09;;;;;;;0.20;0.20;;;5.30;99.90;;;;;;4919878;29;20498;-72
2023/11/28 00:45:35;;;;;;;0.30;0.30;;;5.30;99.90;;;;;;4937339;29;20028;-72
2023/11/28 00:48:01;;;;;;;0.90;0.40;;;5.30;99.90;;;;;;4936775;29;20024;-72
2023/11/28 00:50:26;;;;;;;0.50;0.30;;;5.30;99.90;;;;;;4937170;29;20548;-73
2023/11/28 00:52:52;;;;;;;2.43;0.30;;;5.40;99.90;;;;;;4919516;29;20122;-72
2023/11/28 00:55:18;;;;;;;0.40;0.40;;;5.40;99.90;;;;;;4927404;29;20083;-72
2023/11/28 00:57:46;;;;;;;0.30;0.30;;;5.40;99.90;;;;;;4937141;29;20131;-73
2023/11/28 01:00:13;;;;;;;0.60;0.40;;;5.40;99.90;;;;;;4919496;29;20027;-73
2023/11/28 01:02:40;;;;;;;0.20;0.20;;;5.40;99.90;;;;;;4920084;29;20035;-73
2023/11/28 01:05:08;;;;;;;0.50;0.30;;;5.40;99.90;;;;;;4919421;29;20118;-73
2023/11/28 01:07:34;;;;;;;1.27;0.30;;;5.50;99.90;;;;;;4919838;29;20063;-73
2023/11/28 01:09:59;;;;;;;0.20;0.20;;;5.50;99.90;;;;;;4919376;29;20066;-73
2023/11/28 01:12:25;;;;;;;0.60;0.30;;;5.50;99.90;;;;;;4937130;29;20027;-72
2023/11/28 01:14:51;;;;;;;0.20;0.20;;;5.50;99.90;;;;;;4919346;29;20471;-73
2023/11/28 01:17:17;;;;;;;0.77;0.40;;;5.50;99.90;;;;;;4913726;29;20024;-74
2023/11/28 01:19:42;;;;;;;0.60;0.40;;;5.50;99.90;;;;;;4901471;29;20131;-74
2023/11/28 01:22:08;;;;;;;1.30;0.47;;;5.50;99.90;;;;;;4925063;29;20473;-74
2023/11/28 01:24:35;;;;;;;0.80;0.40;;;5.50;99.90;;;;;;4920108;29;20078;-73
2023/11/28 01:27:00;;;;;;;1.03;0.40;;;5.60;99.90;;;;;;4936605;29;20082;-72
2023/11/28 01:29:26;;;;;;;2.90;1.10;;;5.50;99.90;;;;;;4937078;29;20024;-74
2023/11/28 01:31:52;;;;;;;1.47;0.30;;;5.60;99.90;;;;;;4936427;29;20110;-74
2023/11/28 01:34:17;;;;;;;1.07;0.50;;;5.60;99.90;;;;;;4919959;29;20106;-73
2023/11/28 01:36:43;;;;;;;0.43;0.30;;;5.60;99.90;;;;;;4936647;29;20079;-74
2023/11/28 01:39:12;;;;;;;2.00;0.40;;;5.60;99.90;;;;;;4935679;29;20107;-75
2023/11/28 01:41:39;;;;;;;0.47;0.27;;;5.60;99.90;;;;;;4936079;29;20437;-74
2023/11/28 01:44:05;;;;;;;0.20;0.20;;;5.60;99.90;;;;;;4935940;29;20020;-73
2023/11/28 01:46:35;;;;;;;0.93;0.30;;;5.70;99.90;;;;;;4936485;29;20028;-73
2023/11/28 01:49:06;;;;;;;0.30;0.30;;;5.70;99.90;;;;;;4936303;29;20024;-74
2023/11/28 01:51:32;;;;;;;0.37;0.30;;;5.70;99.90;;;;;;4936444;29;20481;-74
2023/11/28 01:54:02;;;;;;;1.73;0.20;;;5.70;99.90;;;;;;4936414;29;20024;-73
2023/11/28 01:56:29;;;;;;;0.60;0.30;;;5.70;99.90;;;;;;4936707;29;20028;-73
2023/11/28 01:58:55;;;;;;;1.73;0.40;;;5.70;99.90;;;;;;4936171;29;20409;-75
2023/11/28 02:01:22;;;;;;;0.20;0.20;;;5.70;99.90;;;;;;4936471;29;20074;-73
2023/11/28 02:03:49;;;;;;;1.07;0.40;;;5.70;99.90;;;;;;4936759;29;20028;-73
2023/11/28 02:06:15;;;;;;;0.93;0.47;;;5.70;99.90;;;;;;4934705;29;20034;-74
2023/11/28 02:08:41;;;;;;;0.20;0.20;;;5.70;99.90;;;;;;4935180;29;20023;-74
2023/11/28 02:11:07;;;;;;;1.00;0.40;;;5.70;99.90;;;;;;4935603;29;20036;-74
2023/11/28 02:13:32;;;;;;;0.60;0.40;;;5.80;99.90;;;;;;4935023;29;20028;-74
2023/11/28 02:16:08;;;;;;;1.93;0.60;;;5.80;99.90;;;;;;4935854;29;20028;-74
2023/11/28 02:18:33;;;;;;;1.23;0.50;;;5.80;99.90;;;;;;4935096;29;20113;-74
2023/11/28 02:20:59;;;;;;;1.07;0.40;;;5.80;99.90;;;;;;4934147;29;20529;-74
2023/11/28 02:23:25;;;;;;;1.07;0.50;;;5.80;99.90;;;;;;4934635;29;20052;-73
2023/11/28 02:25:51;;;;;;;0.33;0.33;;;5.80;99.90;;;;;;4934876;29;20020;-74
2023/11/28 02:28:21;;;;;;;0.60;0.50;;;5.80;99.90;;;;;;4934380;29;20028;-74
2023/11/28 02:30:48;;;;;;;1.70;0.70;;;5.80;99.90;;;;;;4934767;29;20031;-74
2023/11/28 02:33:14;;;;;;;0.83;0.30;;;5.80;99.90;;;;;;4934417;29;20477;-74
2023/11/28 02:35:40;;;;;;;0.70;0.30;;;5.80;99.90;;;;;;4934761;29;20503;-73
2023/11/28 02:38:06;;;;;;;0.40;0.30;;;5.80;99.90;;;;;;4934313;29;20024;-74
2023/11/28 02:40:31;;;;;;;0.97;0.40;;;5.80;99.90;;;;;;4934520;29;20038;-74
2023/11/28 02:42:57;;;;;;;0.87;0.40;;;5.80;99.90;;;;;;4933496;29;20038;-74
2023/11/28 02:45:22;;;;;;;2.47;0.20;;;5.80;99.90;;;;;;4934664;29;20489;-74
2023/11/28 02:47:48;;;;;;;0.60;0.30;;;5.90;99.90;;;;;;4936021;29;20034;-73
2023/11/28 02:50:13;;;;;;;1.57;0.47;;;5.90;99.90;;;;;;4934044;29;20108;-74
2023/11/28 02:52:42;;;;;;;0.30;0.30;;;5.90;99.90;;;;;;4935421;29;20370;-74
2023/11/28 02:55:07;;;;;;;2.13;0.50;;;5.90;99.90;;;;;;4933749;29;20024;-74
2023/11/28 02:57:33;;;;;;;0.93;0.23;;;5.90;99.90;;;;;;4934489;29;20032;-74
2023/11/28 02:59:59;;;;;;;0.63;0.30;;;5.90;99.90;;;;;;4933963;29;20039;-74
2023/11/28 03:02:27;;;;;;;0.73;0.33;;;5.90;99.90;;;;;;4934458;29;20055;-73
2023/11/28 03:04:52;;;;;;;0.40;0.20;;;5.90;99.90;;;;;;4934531;29;20359;-73
2023/11/28 03:07:18;;;;;;;0.43;0.30;;;5.90;99.90;;;;;;4933852;29;20144;-73
2023/11/28 03:09:43;;;;;;;0.67;0.40;;;5.90;99.90;;;;;;4935487;29;20366;-74
2023/11/28 03:12:09;;;;;;;2.50;0.30;;;6.00;99.90;;;;;;4935029;29;20032;-73
2023/11/28 03:14:35;;;;;;;0.70;0.40;;;6.00;99.90;;;;;;4935600;29;20083;-73
2023/11/28 03:17:00;;;;;;;0.30;0.30;;;6.00;99.90;;;;;;4934701;29;20027;-73
2023/11/28 03:19:26;;;;;;;0.47;0.40;;;6.00;99.90;;;;;;4935425;29;20455;-73
2023/11/28 03:21:52;;;;;;;0.40;0.40;;;6.00;99.90;;;;;;4945430;28;20133;-73
2023/11/28 03:24:18;;;;;;;0.50;0.40;;;6.00;99.90;;;;;;4973691;28;20034;-73
2023/11/28 03:26:44;;;;;;;1.37;0.40;;;6.00;99.90;;;;;;4956545;28;20427;-73
2023/11/28 03:29:10;;;;;;;0.80;0.50;;;6.00;99.90;;;;;;4973338;28;20030;-73
2023/11/28 03:31:35;;;;;;;0.43;0.43;;;6.00;99.90;;;;;;4973799;28;20030;-73
2023/11/28 03:34:02;;;;;;;0.50;0.40;;;6.00;99.90;;;;;;4955963;28;20030;-73
2023/11/28 03:36:28;;;;;;;2.33;0.50;;;6.00;99.90;;;;;;4956490;28;20039;-73
2023/11/28 03:38:54;;;;;;;0.40;0.40;;;6.10;99.90;;;;;;4956468;28;20469;-73
2023/11/28 03:41:20;;;;;;;2.20;0.43;;;6.10;99.90;;;;;;4955867;28;20400;-73
2023/11/28 03:43:46;;;;;;;0.40;0.40;;;6.10;99.90;;;;;;4956435;28;20085;-73
2023/11/28 03:46:11;;;;;;;0.30;0.30;;;6.10;99.90;;;;;;4955933;28;20480;-73
2023/11/28 03:48:38;;;;;;;0.47;0.40;;;6.10;99.90;;;;;;4956452;28;20110;-73
2023/11/28 03:51:03;;;;;;;0.70;0.50;;;6.10;99.90;;;;;;4955571;28;20138;-73
2023/11/28 03:53:29;;;;;;;0.97;0.40;;;6.10;99.90;;;;;;4973518;28;20109;-74
2023/11/28 03:55:55;;;;;;;0.90;0.33;;;6.10;99.90;;;;;;4959094;28;20027;-73
2023/11/28 03:58:23;;;;;;;1.33;0.40;;;6.10;99.90;;;;;;4959247;28;20109;-73
2023/11/28 04:00:50;;;;;;;1.53;0.50;;;6.10;99.90;;;;;;4977127;28;20059;-73
2023/11/28 04:03:15;;;;;;;1.37;0.60;;;6.10;99.90;;;;;;4959359;28;20089;-73
2023/11/28 04:05:43;;;;;;;0.60;0.50;;;6.10;99.90;;;;;;4977144;28;20535;-73
2023/11/28 04:08:08;;;;;;;1.70;0.70;;;6.10;99.90;;;;;;4959371;28;20481;-73
2023/11/28 04:10:34;;;;;;;0.50;0.40;;;6.10;99.90;;;;;;4977030;28;20030;-73
2023/11/28 04:12:59;;;;;;;0.80;0.43;;;6.10;99.90;;;;;;4959108;28;20082;-80
2023/11/28 04:15:25;;;;;;;1.03;0.60;;;6.10;99.90;;;;;;4976654;28;20037;-73
2023/11/28 04:17:51;;;;;;;0.40;0.40;;;6.10;99.90;;;;;;4976849;28;20535;-73
2023/11/28 04:20:16;;;;;;;0.60;0.50;;;6.10;99.90;;;;;;4976217;28;20042;-73
2023/11/28 04:22:42;;;;;;;0.80;0.47;;;6.10;99.90;;;;;;4959344;28;20061;-73
2023/11/28 04:25:08;;;;;;;0.40;0.40;;;6.10;99.90;;;;;;4976395;28;20459;-74
2023/11/28 04:27:33;;;;;;;0.60;0.50;;;6.10;99.90;;;;;;4976751;28;20023;-73
2023/11/28 04:29:59;;;;;;;1.10;0.50;;;6.10;99.90;;;;;;4959375;28;20479;-73
2023/11/28 04:32:25;;;;;;;0.60;0.50;;;6.00;99.90;;;;;;4976499;28;20114;-73
2023/11/28 04:34:51;;;;;;;0.97;0.60;;;6.10;99.90;;;;;;4959268;28;20034;-73
2023/11/28 04:37:16;;;;;;;0.50;0.50;;;6.10;99.90;;;;;;4976129;28;20023;-73
2023/11/28 04:39:44;;;;;;;0.40;0.40;;;6.00;99.90;;;;;;4976374;28;20375;-73
2023/11/28 04:42:09;;;;;;;0.40;0.40;;;6.00;99.90;;;;;;4958732;28;20391;-73
2023/11/28 04:44:35;;;;;;;0.40;0.40;;;6.00;99.90;;;;;;4959234;28;20118;-73
2023/11/28 04:47:01;;;;;;;0.50;0.40;;;6.00;99.90;;;;;;4976339;28;20023;-73
2023/11/28 04:49:26;;;;;;;0.50;0.50;;;6.00;99.90;;;;;;4976312;28;20031;-73
2023/11/28 04:51:52;;;;;;;0.50;0.50;;;6.00;99.90;;;;;;4976439;28;20058;-73
2023/11/28 04:54:18;;;;;;;1.70;0.50;;;6.00;99.90;;;;;;4958473;28;20465;-73
2023/11/28 04:56:43;;;;;;;0.70;0.60;;;6.00;99.90;;;;;;4958890;28;20026;-73
2023/11/28 04:59:09;;;;;;;0.20;0.20;;;6.00;99.90;;;;;;4958362;28;20031;-73
2023/11/28 05:01:45;;;;;;;0.43;0.40;;;6.00;99.90;;;;;;4958904;28;20030;-73
2023/11/28 05:04:12;;;;;;;0.40;0.40;;;6.00;99.90;;;;;;4958344;28;20468;-73
2023/11/28 05:06:37;;;;;;;0.70;0.50;;;6.00;99.90;;;;;;4975473;28;20030;-73
2023/11/28 05:09:04;;;;;;;0.73;0.40;;;6.00;99.90;;;;;;4958136;28;20113;-78
2023/11/28 05:11:29;;;;;;;0.60;0.50;;;6.00;99.90;;;;;;4958516;28;20035;-73
2023/11/28 05:13:55;;;;;;;0.73;0.40;;;6.00;99.90;;;;;;4975919;28;20033;-73
2023/11/28 05:16:21;;;;;;;0.40;0.40;;;6.00;99.90;;;;;;4958099;28;20026;-73
2023/11/28 05:18:47;;;;;;;0.40;0.40;;;6.00;99.90;;;;;;4975773;28;20109;-73
2023/11/28 05:21:12;;;;;;;0.60;0.40;;;5.90;99.90;;;;;;4957631;28;20039;-73
2023/11/28 05:23:38;;;;;;;0.43;0.37;;;5.90;99.90;;;;;;4958469;28;20035;-73
2023/11/28 05:26:04;;;;;;;0.67;0.60;;;5.90;99.90;;;;;;4958134;28;20027;-84
2023/11/28 05:28:29;;;;;;;0.50;0.50;;;5.90;99.90;;;;;;4958295;28;20380;-73
2023/11/28 05:30:55;;;;;;;0.67;0.47;;;5.90;99.90;;;;;;4958281;28;20034;-73
2023/11/28 05:33:21;;;;;;;0.70;0.70;;;5.90;99.90;;;;;;4957831;28;20030;-73
2023/11/28 05:35:46;;;;;;;1.33;0.40;;;5.90;99.90;;;;;;4975475;28;20078;-74
2023/11/28 05:38:12;;;;;;;1.33;0.70;;;5.90;99.90;;;;;;4957534;28;20085;-73
2023/11/28 05:40:37;;;;;;;1.17;0.60;;;5.90;99.90;;;;;;4958267;28;20035;-73
2023/11/28 05:43:03;;;;;;;0.40;0.40;;;5.80;99.90;;;;;;4958013;28;20031;-73
2023/11/28 05:45:29;;;;;;;0.60;0.30;;;5.80;99.90;;;;;;4974802;28;20031;-73
2023/11/28 05:47:55;;;;;;;0.77;0.30;;;5.80;99.90;;;;;;4957879;28;20094;-73
2023/11/28 05:50:22;;;;;;;1.00;0.30;;;5.80;99.90;;;;;;4957203;28;20027;-73
2023/11/28 05:52:51;;;;;;;0.57;0.30;;;5.70;99.90;;;;;;4957660;28;20038;-73
2023/11/28 05:55:20;;;;;;;1.17;0.20;;;5.70;99.90;;;;;;4957003;28;20034;-73
2023/11/28 05:57:46;;;;;;;0.53;0.20;;;5.70;99.90;;;;;;4957905;28;20472;-73
2023/11/28 06:00:12;;;;;;;0.20;0.20;;;5.60;99.90;;;;;;4974729;28;20030;-74
2023/11/28 06:02:39;;;;;;;0.20;0.20;;;5.60;99.90;;;;;;4975043;28;20037;-73
2023/11/28 06:05:05;;;;;;;0.20;0.20;;;5.60;99.90;;;;;;4974982;28;20046;-73
2023/11/28 06:07:31;;;;;;;0.10;0.10;;;5.60;99.90;;;;;;4957877;28;20054;-73
2023/11/28 06:09:57;;;;;;;0.10;0.10;;;5.50;99.90;;;;;;4957788;28;20027;-73
2023/11/28 06:12:23;;;;;;;0.10;0.10;;;5.50;99.90;;;;;;4974385;28;20030;-73
2023/11/28 06:14:49;;;;;;;1.80;0.43;;;5.40;99.90;;;;;;4974781;28;20110;-73
2023/11/28 06:17:15;;;;;;;0.10;0.10;;;5.30;99.90;;;;;;4956835;28;20494;-73
2023/11/28 06:19:40;;;;;;;0.10;0.10;;;5.30;99.90;;;;;;4956980;28;20031;-73
2023/11/28 06:22:06;;;;;;;0.93;0.13;;;5.30;99.90;;;;;;4974079;28;20049;-73
2023/11/28 06:24:32;;;;;;;0.10;0.10;;;5.20;99.90;;;;;;4957139;28;20495;-73
2023/11/28 06:26:58;;;;;;;0.10;0.10;;;5.20;99.90;;;;;;4957393;28;20464;-74
2023/11/28 06:29:23;;;;;;;0.20;0.20;;;5.20;99.90;;;;;;4974063;28;20027;-74
2023/11/28 06:31:49;;;;;;;0.10;0.10;;;5.20;99.90;;;;;;4974387;28;20038;-74
2023/11/28 06:34:15;;;;;;;0.10;0.10;;;5.20;99.90;;;;;;4956778;28;20463;-74
2023/11/28 06:36:40;;;;;;;0.20;0.10;;;5.10;99.90;;;;;;4957134;28;20482;-73
2023/11/28 06:39:06;;;;;;;0.23;0.23;;;5.10;99.90;;;;;;4957061;28;20100;-73
2023/11/28 06:41:31;;;;;;;0.40;0.10;;;5.10;99.90;;;;;;4973761;28;20035;-73
2023/11/28 06:43:57;;;;;;;0.33;0.30;;;5.00;99.90;;;;;;4957197;28;20023;-73
2023/11/28 06:46:23;;;;;;;0.20;0.20;;;5.00;99.90;;;;;;4956563;28;20142;-73
2023/11/28 06:48:48;;;;;;;0.20;0.20;;;5.00;99.90;;;;;;4956889;28;20472;-73
2023/11/28 06:51:15;;;;;;;0.57;0.20;;;4.90;99.90;;;;;;4956188;28;20037;-73
2023/11/28 06:53:41;;;;;;;0.20;0.20;;;5.00;99.90;;;;;;4956777;28;20042;-73
2023/11/28 06:56:08;;;;;;;0.30;0.30;;;4.90;99.90;;;;;;4956856;28;20023;-73
2023/11/28 06:58:34;;;;;;;0.60;0.20;;;5.00;99.90;;;;;;4973953;28;20030;-74
2023/11/28 07:00:59;;;;;;;0.20;0.20;;;5.00;99.90;;;;;;4956749;28;20658;-73
2023/11/28 07:03:30;;;;;;;0.10;0.10;;;5.00;99.90;;;;;;4973505;28;20487;-73
2023/11/28 07:05:56;;;;;;;0.20;0.20;;;5.00;99.90;;;;;;4956958;28;20027;-73
2023/11/28 07:08:21;;;;;;;0.30;0.30;;;4.90;99.90;;;;;;4956275;28;20027;-73
2023/11/28 07:10:47;;;;;;;0.13;0.13;;;4.90;99.90;;;;;;4956712;28;20027;-73
2023/11/28 07:13:12;;;;;;;0.20;0.20;;;4.80;99.90;;;;;;4956177;28;20026;-73
2023/11/28 07:15:38;;;;;;;0.13;0.13;;;4.80;99.90;;;;;;4956632;28;20031;-73
2023/11/28 07:18:04;;;;;;;1.23;0.30;;;4.70;99.90;;;;;;4956592;28;20122;-73
2023/11/28 07:20:29;;;;;;;0.20;0.20;;;4.70;99.90;;;;;;4973245;28;20471;-73
2023/11/28 07:22:55;;;;;;;0.43;0.40;;;4.70;99.90;;;;;;4973743;28;20051;-73
2023/11/28 07:25:21;;;;;;;0.93;0.60;;;4.70;99.90;;;;;;4956095;28;20066;-73
2023/11/28 07:27:47;;;;;;;0.83;0.43;;;4.70;99.90;;;;;;4956569;28;20022;-73
2023/11/28 07:30:13;;;;;;;1.47;0.50;;;4.60;99.90;;;;;;4975256;28;20150;-74
2023/11/28 07:32:38;;;;;;;0.20;0.20;;;4.70;99.90;;;;;;4977688;28;20023;-73
2023/11/28 07:35:05;;;;;;;0.73;0.50;;;4.70;99.90;;;;;;4960435;28;20357;-73
2023/11/28 07:37:31;;;;;;;1.20;0.60;;;4.60;99.90;;;;;;4959906;28;20352;-73
2023/11/28 07:39:56;;;;;;;0.70;0.40;;;4.60;99.90;;;;;;4960140;28;20357;-73
2023/11/28 07:42:22;;;;;;;0.53;0.30;;;4.60;99.90;;;;;;4977066;28;20055;-73
2023/11/28 07:44:47;;;;;;;0.50;0.30;;;4.60;99.90;;;;;;4960349;28;20038;-73
2023/11/28 07:47:13;;;;;;;0.20;0.20;;;4.60;99.90;;;;;;4977077;28;20081;-74
2023/11/28 07:49:39;;;;;;;0.30;0.20;;;4.60;99.90;;;;;;4960158;28;20540;-73
2023/11/28 07:52:06;;;;;;;0.43;0.20;;;4.60;99.90;;;;;;4960041;28;20037;-73
2023/11/28 07:54:31;;;;;;;0.50;0.27;;;4.60;99.90;;;;;;4977105;28;20038;-73
2023/11/28 07:56:57;;;;;;;0.30;0.27;;;4.60;99.90;;;;;;4959911;28;20397;-73
2023/11/28 07:59:23;;;;;;;0.20;0.20;;;4.60;99.90;;;;;;4976555;28;20031;-73
2023/11/28 08:01:48;;;;;;;0.20;0.20;;;4.60;99.90;;;;;;4977157;28;20103;-74
2023/11/28 08:04:14;;;;;;;0.50;0.30;;;4.60;99.90;;;;;;4959381;28;20038;-74
2023/11/28 08:06:40;;;;;;;0.20;0.20;;;4.60;99.90;;;;;;4977180;28;20430;-73
2023/11/28 08:09:07;;;;;;;0.20;0.20;;;4.50;99.90;;;;;;4959718;28;20027;-73
2023/11/28 08:11:33;;;;;;;0.40;0.30;;;4.50;99.90;;;;;;4976558;28;20213;-73
2023/11/28 08:13:59;;;;;;;0.77;0.20;;;4.50;99.90;;;;;;4959762;28;20042;-73
2023/11/28 08:16:24;;;;;;;0.20;0.20;;;4.50;99.90;;;;;;4959097;28;20035;-73
2023/11/28 08:18:50;;;;;;;0.27;0.27;;;4.50;99.90;;;;;;4959514;28;20093;-73
2023/11/28 08:21:16;;;;;;;0.20;0.20;;;4.50;99.90;;;;;;4958556;28;20133;-74
2023/11/28 08:23:42;;;;;;;0.30;0.20;;;4.50;99.90;;;;;;4959648;28;20027;-73
2023/11/28 08:26:07;;;;;;;0.30;0.30;;;4.60;99.90;;;;;;4977032;28;20026;-73
2023/11/28 08:28:35;;;;;;;0.67;0.33;;;4.60;99.90;;;;;;4958913;28;20023;-74
2023/11/28 08:31:01;;;;;;;0.30;0.30;;;4.50;99.90;;;;;;4976746;28;20026;-73
2023/11/28 08:33:26;;;;;;;0.33;0.30;;;4.50;99.90;;;;;;4976350;28;20464;-74
2023/11/28 08:35:52;;;;;;;0.40;0.30;;;4.40;99.90;;;;;;4959242;28;20026;-73
2023/11/28 08:38:17;;;;;;;0.23;0.20;;;4.40;99.90;;;;;;4958831;28;20077;-74
2023/11/28 08:40:43;;;;;;;1.60;0.30;;;4.40;99.90;;;;;;4958381;28;20476;-73
2023/11/28 08:43:09;;;;;;;0.40;0.30;;;4.40;99.90;;;;;;4975942;28;20122;-74
2023/11/28 08:45:34;;;;;;;0.30;0.30;;;4.30;99.90;;;;;;4975680;28;20491;-74
2023/11/28 08:48:00;;;;;;;0.30;0.30;;;4.40;99.90;;;;;;4959030;28;20033;-74
2023/11/28 08:50:25;;;;;;;0.43;0.40;;;4.40;99.90;;;;;;4975974;28;20042;-74
2023/11/28 08:52:51;;;;;;;0.27;0.27;;;4.30;99.90;;;;;;4976334;28;20117;-74
2023/11/28 08:55:17;;;;;;;0.20;0.20;;;4.40;99.90;;;;;;4958377;28;20412;-74
2023/11/28 08:57:42;;;;;;;0.20;0.20;;;4.50;99.90;;;;;;4958152;28;20058;-74
2023/11/28 09:00:08;;;;;;;0.20;0.20;;;4.50;99.90;;;;;;4956833;29;20118;-73
2023/11/28 09:02:34;;;;;;;0.20;0.20;;;4.60;99.90;;;;;;4939219;29;20043;-74
2023/11/28 09:05:00;;;;;;;0.20;0.20;;;4.50;99.90;;;;;;4971709;28;20035;-73
2023/11/28 09:07:26;;;;;;;1.90;1.30;;;4.40;99.90;;;;;;4939132;29;20515;-74
2023/11/28 09:09:51;;;;;;;4.37;1.70;;;4.50;99.90;;;;;;4956438;29;20023;-74
2023/11/28 09:12:18;;;;;;;5.93;3.10;;;4.50;99.90;;;;;;4939168;29;20491;-85
2023/11/28 09:14:47;;;;;;;1.07;0.70;;;4.50;99.90;;;;;;4971545;28;20035;-74
2023/11/28 09:17:13;;;;;;;0.40;0.40;;;4.50;99.90;;;;;;4971514;28;20077;-74
2023/11/28 09:19:39;;;;;;;0.70;0.33;;;4.40;99.90;;;;;;4938826;29;20027;-74
2023/11/28 09:22:05;;;;;;;0.30;0.30;;;4.50;99.90;;;;;;4964166;28;20047;-74
2023/11/28 09:24:31;;;;;;;0.90;0.40;;;4.50;99.90;;;;;;4936916;29;20569;-74
2023/11/28 09:26:58;;;;;;;0.37;0.30;;;4.50;99.90;;;;;;4920099;29;20062;-73
2023/11/28 09:29:24;;;;;;;0.30;0.23;;;4.50;99.90;;;;;;4919725;29;20028;-73
2023/11/28 09:31:50;;;;;;;0.37;0.37;;;4.50;99.90;;;;;;4937374;29;20091;-73
2023/11/28 09:34:16;;;;;;;0.50;0.40;;;4.40;99.90;;;;;;4936690;29;20507;-73
2023/11/28 09:36:41;;;;;;;0.30;0.30;;;4.40;99.90;;;;;;4936259;29;20024;-74
2023/11/28 09:39:09;;;;;;;0.40;0.30;;;4.40;99.90;;;;;;4937003;29;20386;-74
2023/11/28 09:41:38;;;;;;;0.20;0.20;;;4.50;99.90;;;;;;4919299;29;20047;-74
2023/11/28 09:44:04;;;;;;;0.23;0.20;;;4.40;99.90;;;;;;4919788;29;20023;-74
2023/11/28 09:46:31;;;;;;;0.23;0.23;;;4.50;99.90;;;;;;4936110;29;20028;-74
2023/11/28 09:49:00;;;;;;;0.63;0.40;;;4.40;99.90;;;;;;4919791;29;20034;-74
2023/11/28 09:51:29;;;;;;;0.60;0.30;;;4.40;99.90;;;;;;4918977;29;20032;-74
2023/11/28 09:53:58;;;;;;;0.53;0.30;;;4.40;99.90;;;;;;4918994;29;20028;-73
2023/11/28 09:56:25;;;;;;;0.33;0.33;;;4.50;99.90;;;;;;4919128;29;20527;-74
2023/11/28 09:59:04;;;;;;;0.40;0.40;;;4.50;99.90;;;;;;4919623;29;20094;-74
2023/11/28 10:01:31;;;;;;;0.33;0.30;;;4.50;99.90;;;;;;4935775;29;20043;-74
2023/11/28 10:04:00;;;;;;;0.30;0.30;;;4.50;99.90;;;;;;4935256;29;20027;-73
2023/11/28 10:06:26;;;;;;;0.50;0.30;;;4.50;99.90;;;;;;4936121;29;20083;-73
2023/11/28 10:08:54;;;;;;;0.33;0.30;;;4.50;99.90;;;;;;4935194;29;20024;-73
2023/11/28 10:11:21;;;;;;;0.53;0.40;;;4.50;99.90;;;;;;4919935;29;20716;-73
2023/11/28 10:13:47;;;;;;;0.30;0.30;;;4.50;99.90;;;;;;4919232;29;20531;-73
2023/11/28 10:16:19;;;;;;;0.30;0.30;;;4.50;99.90;;;;;;4918511;29;20020;-72
2023/11/28 10:18:46;;;;;;;;;;;4.40;99.90;;;;;;4936140;29;20031;-73
2023/11/28 10:21:14;;;;;;;0.73;0.40;;;4.40;99.90;;;;;;4917996;29;19925;-72
2023/11/28 10:23:46;;;;;;;0.40;0.40;;;4.40;99.90;;;;;;4918263;29;20761;-72
2023/11/28 10:26:12;;;;;;;0.60;0.50;;;4.40;99.90;;;;;;4903218;29;20058;-72
2023/11/28 10:28:38;;;;;;;0.77;0.50;;;4.40;99.90;;;;;;4935225;29;20445;-72
2023/11/28 10:31:06;;;;;;;0.40;0.40;;;4.50;99.90;;;;;;4935366;29;20040;-72
2023/11/28 10:33:32;;;;;;;0.60;0.30;;;4.50;99.90;;;;;;4917659;29;20050;-73
2023/11/28 10:35:58;;;;;;;0.77;0.50;;;4.40;99.90;;;;;;4936011;29;20139;-73
2023/11/28 10:38:27;;;;;;;1.03;0.60;;;4.50;99.90;;;;;;4934848;29;20075;-74
2023/11/28 10:40:55;;;;;;;1.03;0.50;;;4.50;99.90;;;;;;4917114;29;20070;-73
2023/11/28 10:43:21;;;;;;;0.40;0.40;;;4.40;99.90;;;;;;4917758;29;20115;-80
2023/11/28 10:45:47;;;;;;;0.70;0.60;;;4.40;99.90;;;;;;4920995;29;20114;-73
2023/11/28 10:48:13;;;;;;;0.40;0.40;;;4.40;99.90;;;;;;4918103;29;20031;-73
2023/11/28 10:50:41;;;;;;;0.50;0.50;;;4.50;99.90;;;;;;4935196;29;20031;-72
2023/11/28 10:53:11;;;;;;;0.50;0.50;;;4.40;99.90;;;;;;4935070;29;20067;-72
2023/11/28 10:55:49;;;;;;;0.80;0.50;;;4.40;99.90;;;;;;4934845;29;20024;-72
2023/11/28 10:58:15;;;;;;;2.13;0.47;;;4.40;99.90;;;;;;4918317;29;20131;-72
2023/11/28 11:00:45;;;;;;;0.53;0.50;;;4.40;99.90;;;;;;4934715;29;20282;-73
2023/11/28 11:03:12;;;;;;;0.60;0.50;;;4.40;99.90;;;;;;4917920;29;20042;-73
2023/11/28 11:05:39;;;;;;;1.23;0.60;;;4.40;99.90;;;;;;4916887;29;20127;-73
2023/11/28 11:08:04;;;;;;;0.43;0.43;;;4.30;99.90;;;;;;4918187;29;20038;-72
2023/11/28 11:10:30;;;;;;;0.50;0.50;;;4.30;99.90;;;;;;4933964;29;20378;-72
2023/11/28 11:13:18;;;;;;;0.40;0.40;;;4.30;99.90;;;;;;4925901;29;20028;-72
2023/11/28 11:15:55;;;;;;;0.40;0.40;;;4.20;99.90;;;;;;4917511;29;20377;-72
2023/11/28 11:18:43;;;;;;;2.30;0.60;;;4.30;99.90;;;;;;4920798;29;20024;-72
2023/11/28 11:21:43;;;;;;;1.33;0.70;;;4.30;99.90;;;;;;4917615;29;20043;-72
2023/11/28 11:24:18;;;;;;;1.10;0.70;;;4.30;99.90;;;;;;4914230;29;20056;-73
2023/11/28 11:26:51;;;;;;;0.50;0.50;;;4.30;99.90;;;;;;4917529;29;20023;-73
2023/11/28 11:29:37;;;;;;;0.57;0.50;;;4.30;99.90;;;;;;4935205;29;20055;-73
2023/11/28 11:32:07;;;;;;;0.73;0.60;;;4.20;99.90;;;;;;4934954;29;20036;-73
2023/11/28 11:34:48;;;;;;;0.73;0.73;;;4.20;99.90;;;;;;4929954;29;20560;-73
2023/11/28 11:37:21;;;;;;;0.77;0.70;;;4.20;99.90;;;;;;4934818;29;20024;-73
2023/11/28 11:39:49;;;;;;;0.80;0.70;;;4.30;99.90;;;;;;4933954;29;20433;-73
2023/11/28 11:42:19;;;;;;;0.80;0.80;;;4.20;99.90;;;;;;4934331;29;20047;-72
2023/11/28 11:44:50;;;;;;;2.20;0.70;;;4.30;99.90;;;;;;4917227;29;20035;-74
2023/11/28 11:47:19;;;;;;;0.80;0.80;;;4.30;99.90;;;;;;4934254;29;20540;-72
2023/11/28 11:49:46;;;;;;;1.27;0.87;;;4.30;99.90;;;;;;4917082;29;20031;-72
2023/11/28 11:52:13;;;;;;;1.33;0.87;;;4.30;99.90;;;;;;4934916;29;20107;-72
2023/11/28 11:54:43;;;;;;;2.27;0.70;;;4.40;99.90;;;;;;4934228;29;20477;-72
2023/11/28 11:57:09;;;;;;;1.30;0.80;;;4.40;99.90;;;;;;4934380;29;20039;-73
2023/11/28 11:59:36;;;;;;;1.43;0.60;;;4.30;99.90;;;;;;4917088;29;20481;-72
2023/11/28 12:02:02;;;;;;;0.97;0.50;;;4.40;99.90;;;;;;4928933;29;20043;-73
2023/11/28 12:04:28;;;;;;;1.70;0.60;;;4.30;99.90;;;;;;4934359;29;20035;-73
2023/11/28 12:07:06;;;;;;;0.90;0.50;;;4.30;99.90;;;;;;4917391;29;20067;-73
2023/11/28 12:09:32;;;;;;;0.90;0.60;;;4.30;99.90;;;;;;4917088;29;20118;-73
2023/11/28 12:11:58;;;;;;;0.97;0.70;;;4.30;99.90;;;;;;4934204;29;20040;-73
2023/11/28 12:14:24;;;;;;;0.80;0.80;;;4.30;99.90;;;;;;4917444;29;20038;-78
2023/11/28 12:16:52;;;;;;;2.30;1.40;;;4.30;99.90;;;;;;4937077;29;20532;-74
2023/11/28 12:19:17;;;;;;;3.70;2.20;;;4.30;99.90;;;;;;4914470;29;20780;-73
2023/11/28 12:21:43;;;;;;;1.10;0.97;;;4.30;99.90;;;;;;4924846;29;20047;-73
2023/11/28 12:24:09;;;;;;;1.13;1.00;;;4.30;99.90;;;;;;4955787;29;20031;-73
2023/11/28 12:26:35;;;;;;;0.80;0.80;;;4.40;99.90;;;;;;4955427;29;20023;-72
2023/11/28 12:29:01;;;;;;;0.87;0.77;;;4.30;99.90;;;;;;4956842;28;20058;-73
2023/11/28 12:31:28;;;;;;;1.30;0.90;;;4.30;99.90;;;;;;4955270;29;20123;-73
2023/11/28 12:33:54;;;;;;;1.83;1.10;;;4.20;99.90;;;;;;4955529;29;20110;-73
2023/11/28 12:36:25;;;;;;;1.00;0.90;;;4.20;99.90;;;;;;4956837;28;20031;-73
2023/11/28 12:38:52;;;;;;;1.27;1.17;;;4.30;99.90;;;;;;4966078;28;20039;-73
2023/11/28 12:41:18;;;;;;;1.67;1.17;;;4.30;99.90;;;;;;4956438;28;20028;-73
2023/11/28 12:43:44;;;;;;;2.07;1.07;;;4.30;99.90;;;;;;4956516;28;20034;-72
2023/11/28 12:46:10;;;;;;;1.10;1.00;;;4.30;99.90;;;;;;4956503;29;20031;-72
2023/11/28 12:48:35;;;;;;;1.30;0.80;;;4.30;99.90;;;;;;4954794;29;20050;-73
2023/11/28 12:51:04;;;;;;;1.37;1.00;;;4.20;99.90;;;;;;4954745;29;20527;-73
2023/11/28 12:53:33;;;;;;;1.30;1.20;;;4.10;99.90;;;;;;4956317;29;20039;-72
2023/11/28 12:55:58;;;;;;;1.50;1.00;;;4.10;99.90;;;;;;4955129;29;20023;-73